Time;durP1;ratioP1;P1;durP2;ratioP2;P2;SDS_P1;SDS_P2;PMS_P1;PMS_P2;Temp;Humidity;BMP_temperature;BMP_pressure;BME280_temperature;BME280_humidity;BME280_pressure;Samples;Min_cycle;Max_cycle;Signal;HPM_P1;HPM_P2
2022/08/19 00:04:48;;;;;;;15.03;13.83;;;23.30;44.30;;;;;;10399669;28;20718;-78
2022/08/19 00:09:51;;;;;;;15.97;14.67;;;23.20;43.50;;;;;;10397409;28;20229;-78
2022/08/19 00:14:56;;;;;;;14.80;13.50;;;23.20;43.50;;;;;;10400541;28;20288;-78
2022/08/19 00:19:59;;;;;;;13.93;12.80;;;23.20;44.40;;;;;;10407777;28;20229;-77
2022/08/19 00:25:02;;;;;;;14.10;12.90;;;23.30;43.80;;;;;;10399922;28;20217;-78
2022/08/19 00:30:09;;;;;;;12.73;11.73;;;23.30;43.80;;;;;;10399402;28;20229;-77
2022/08/19 00:35:13;;;;;;;15.37;13.97;;;23.30;44.90;;;;;;10399217;28;20234;-77
2022/08/19 00:40:18;;;;;;;14.83;13.37;;;23.30;43.90;;;;;;10389146;28;20237;-77
2022/08/19 00:45:27;;;;;;;14.70;13.50;;;23.20;44.30;;;;;;10399096;28;20225;-77
2022/08/19 00:50:31;;;;;;;12.97;12.03;;;23.20;45.50;;;;;;10403905;28;20240;-77
2022/08/19 00:55:34;;;;;;;14.93;13.70;;;23.30;44.20;;;;;;10405122;28;20737;-78
2022/08/19 01:00:39;;;;;;;14.93;13.73;;;23.30;44.20;;;;;;10413222;28;20240;-77
2022/08/19 01:05:44;;;;;;;15.13;13.97;;;23.40;45.00;;;;;;10407811;28;20229;-78
2022/08/19 01:10:52;;;;;;;14.63;13.53;;;23.30;44.60;;;;;;10410462;28;20778;-78
2022/08/19 01:16:01;;;;;;;15.57;14.37;;;23.40;45.30;;;;;;10406801;28;20232;-78
2022/08/19 01:21:10;;;;;;;16.07;14.67;;;23.40;45.30;;;;;;10406863;28;20248;-77
2022/08/19 01:26:17;;;;;;;17.00;15.60;;;23.40;45.20;;;;;;10410911;28;20893;-78
2022/08/19 01:31:24;;;;;;;17.00;15.57;;;23.50;45.10;;;;;;10400985;28;20239;-77
2022/08/19 01:36:32;;;;;;;13.17;12.17;;;23.40;45.20;;;;;;10399995;28;20255;-78
2022/08/19 01:41:37;;;;;;;16.50;15.10;;;23.30;45.30;;;;;;10409721;28;20312;-78
2022/08/19 01:46:40;;;;;;;16.50;15.00;;;23.20;45.50;;;;;;10405642;28;20235;-77
2022/08/19 01:51:44;;;;;;;15.70;14.40;;;23.20;44.90;;;;;;10400414;28;20245;-78
2022/08/19 01:56:49;;;;;;;16.23;14.83;;;23.20;44.90;;;;;;10407430;28;20234;-78
2022/08/19 02:01:53;;;;;;;15.13;13.93;;;23.20;45.60;;;;;;10409358;28;20236;-77
2022/08/19 02:06:56;;;;;;;16.07;14.83;;;23.20;45.00;;;;;;10411199;28;20230;-78
2022/08/19 02:12:00;;;;;;;16.27;15.00;;;23.10;45.20;;;;;;10405727;28;20240;-78
2022/08/19 02:17:04;;;;;;;16.93;15.63;;;23.10;46.20;;;;;;10402811;28;20786;-77
2022/08/19 02:22:08;;;;;;;14.63;13.33;;;23.10;45.40;;;;;;10407794;28;20320;-77
2022/08/19 02:27:12;;;;;;;13.90;12.90;;;23.10;45.60;;;;;;10401419;28;20232;-78
2022/08/19 02:32:16;;;;;;;14.97;13.77;;;23.10;46.20;;;;;;10403356;28;20233;-77
2022/08/19 02:42:42;;;;;;;14.97;13.77;;;23.20;45.60;;;;;;10406653;28;20231;-78
2022/08/19 02:47:46;;;;;;;14.53;13.33;;;23.20;46.30;;;;;;10405686;28;20233;-77
2022/08/19 02:52:49;;;;;;;14.80;13.60;;;23.20;45.60;;;;;;10403333;28;20654;-77
2022/08/19 02:57:53;;;;;;;14.40;13.17;;;23.10;45.50;;;;;;10406327;28;20233;-77
2022/08/19 03:02:57;;;;;;;15.80;14.50;;;23.10;46.30;;;;;;10405442;28;20734;-77
2022/08/19 03:08:00;;;;;;;15.27;13.97;;;23.10;45.80;;;;;;10395672;28;20225;-77
2022/08/19 03:13:04;;;;;;;14.40;13.30;;;23.00;46.00;;;;;;10394948;28;20623;-77
2022/08/19 03:18:07;;;;;;;14.80;13.60;;;22.90;46.70;;;;;;10394540;28;20229;-77
2022/08/19 03:23:13;;;;;;;12.73;11.63;;;22.90;46.40;;;;;;10398909;28;20608;-77
2022/08/19 03:28:18;;;;;;;12.67;11.67;;;22.90;46.60;;;;;;10408198;28;20234;-77
2022/08/19 03:33:21;;;;;;;13.00;12.00;;;23.00;47.20;;;;;;10398366;28;20241;-76
2022/08/19 03:38:32;;;;;;;12.57;11.53;;;23.00;46.40;;;;;;10389609;28;20234;-77
2022/08/19 03:43:38;;;;;;;11.33;10.43;;;23.00;46.40;;;;;;10393321;28;20254;-77
2022/08/19 03:48:44;;;;;;;11.60;10.60;;;23.00;47.30;;;;;;10393074;28;20322;-77
2022/08/19 03:53:48;;;;;;;13.57;12.40;;;23.00;46.80;;;;;;10398488;28;20607;-77
2022/08/19 03:58:53;;;;;;;13.67;12.47;;;23.00;46.50;;;;;;10385856;28;20244;-77
2022/08/19 04:03:57;;;;;;;14.23;13.10;;;23.00;47.10;;;;;;10397346;28;20222;-77
2022/08/19 04:09:04;;;;;;;14.07;12.77;;;23.00;46.80;;;;;;10393546;28;20272;-77
2022/08/19 04:14:10;;;;;;;12.67;11.67;;;23.00;47.40;;;;;;10391739;28;20226;-77
2022/08/19 04:19:14;;;;;;;13.93;12.83;;;22.90;47.50;;;;;;10382634;28;20812;-77
2022/08/19 04:24:19;;;;;;;14.80;13.50;;;22.90;47.20;;;;;;10395716;28;20284;-77
2022/08/19 04:29:26;;;;;;;12.17;11.17;;;22.90;47.10;;;;;;10391403;28;20233;-77
2022/08/19 04:34:30;;;;;;;14.03;12.87;;;22.90;47.80;;;;;;10400901;28;20280;-77
2022/08/19 04:45:03;;;;;;;11.47;10.47;;;22.90;47.10;;;;;;10392904;28;20819;-77
2022/08/19 04:50:11;;;;;;;14.20;12.90;;;23.00;47.50;;;;;;10394476;28;20233;-77
2022/08/19 04:55:14;;;;;;;13.70;12.50;;;23.10;47.30;;;;;;10396768;28;20237;-77
2022/08/19 05:00:19;;;;;;;13.37;12.27;;;23.10;47.00;;;;;;10395539;28;20233;-77
2022/08/19 05:05:22;;;;;;;13.73;12.43;;;23.10;47.60;;;;;;10394073;28;20233;-77
2022/08/19 05:10:26;;;;;;;13.93;12.73;;;23.10;47.10;;;;;;10395331;28;20225;-77
2022/08/19 05:15:31;;;;;;;13.67;12.40;;;23.10;47.20;;;;;;10396578;28;20240;-77
2022/08/19 05:25:55;;;;;;;13.47;12.40;;;23.10;47.40;;;;;;10394944;28;20222;-77
2022/08/19 05:31:00;;;;;;;15.33;14.00;;;23.10;47.20;;;;;;10394152;28;20232;-77
2022/08/19 05:36:04;;;;;;;16.47;14.97;;;23.20;47.90;;;;;;10396468;28;20221;-77
2022/08/19 05:41:09;;;;;;;15.83;14.53;;;23.20;47.30;;;;;;10396052;28;20237;-77
2022/08/19 05:46:19;;;;;;;15.93;14.67;;;23.20;47.40;;;;;;10397571;28;20228;-77
2022/08/19 05:51:33;;;;;;;14.77;13.47;;;23.20;48.40;;;;;;10398983;28;20233;-77
2022/08/19 05:56:38;;;;;;;15.67;14.37;;;23.20;47.90;;;;;;10400412;28;20233;-77
2022/08/19 06:01:44;;;;;;;16.43;15.03;;;23.30;47.30;;;;;;10404617;28;20612;-77
2022/08/19 06:06:50;;;;;;;17.50;16.00;;;23.30;48.00;;;;;;10401317;28;20230;-77
2022/08/19 06:11:55;;;;;;;18.03;16.43;;;23.40;47.60;;;;;;10396773;28;20223;-77
2022/08/19 06:17:01;;;;;;;17.77;16.30;;;23.30;47.80;;;;;;10389345;28;20264;-76
2022/08/19 06:22:11;;;;;;;18.70;17.10;;;23.40;48.00;;;;;;10401581;28;20229;-77
2022/08/19 06:27:15;;;;;;;18.07;16.57;;;23.40;47.80;;;;;;10389395;28;20230;-79
2022/08/19 06:32:20;;;;;;;19.03;17.23;;;23.40;47.60;;;;;;10408341;28;20336;-77
2022/08/19 06:37:23;;;;;;;19.70;18.03;;;23.40;48.10;;;;;;10422136;28;20233;-78
2022/08/19 06:42:26;;;;;;;22.20;20.27;;;23.50;47.70;;;;;;10390972;28;20234;-78
2022/08/19 06:47:32;;;;;;;21.97;19.87;;;23.50;47.80;;;;;;10406674;28;20232;-79
2022/08/19 06:52:36;;;;;;;16.80;15.33;;;23.50;48.10;;;;;;10403298;28;20613;-81
2022/08/19 06:57:42;;;;;;;20.37;18.60;;;23.50;47.60;;;;;;10413551;28;20230;-79
2022/08/19 07:02:46;;;;;;;20.10;18.37;;;23.60;47.80;;;;;;10391485;28;20249;-80
2022/08/19 07:07:59;;;;;;;20.03;18.20;;;23.60;48.20;;;;;;10418371;28;20324;-79
2022/08/19 07:13:07;;;;;;;20.73;18.83;;;23.60;47.70;;;;;;10400377;28;20283;-79
2022/08/19 07:18:12;;;;;;;20.57;18.73;;;23.70;47.70;;;;;;10393611;28;20237;-79
2022/08/19 07:23:15;;;;;;;20.60;18.80;;;23.70;47.70;;;;;;10389281;28;20286;-79
2022/08/19 07:28:20;;;;;;;21.13;19.30;;;23.80;47.50;;;;;;10407583;28;20723;-79
2022/08/19 07:33:32;;;;;;;20.23;18.50;;;23.70;47.50;;;;;;10386086;28;20234;-81
2022/08/19 07:38:35;;;;;;;21.90;20.00;;;23.70;47.90;;;;;;10381138;28;20321;-79
2022/08/19 07:43:39;;;;;;;21.80;19.90;;;23.70;47.80;;;;;;10387056;28;20233;-81
2022/08/19 07:48:46;;;;;;;22.03;20.13;;;23.70;47.70;;;;;;10416989;28;20237;-79
2022/08/19 07:53:50;;;;;;;22.30;20.40;;;23.80;48.60;;;;;;10387334;28;20850;-79
2022/08/19 07:58:54;;;;;;;23.70;21.57;;;23.80;48.00;;;;;;10382994;28;20235;-78
2022/08/19 08:09:33;;;;;;;23.93;21.83;;;23.80;48.40;;;;;;10380550;28;20237;-79
2022/08/19 08:14:52;;;;;;;23.23;21.13;;;23.90;49.10;;;;;;10356781;28;20225;-82
2022/08/19 08:19:59;;;;;;;21.67;19.97;;;23.90;48.90;;;;;;10369472;28;20229;-78
2022/08/19 08:25:05;;;;;;;22.43;20.60;;;23.90;48.60;;;;;;10376037;28;20221;-81
2022/08/19 08:30:10;;;;;;;23.33;21.40;;;24.00;49.50;;;;;;10368660;28;20225;-77
2022/08/19 08:35:20;;;;;;;22.47;20.67;;;23.90;48.40;;;;;;10379899;28;20268;-81
2022/08/19 08:40:30;;;;;;;19.50;17.83;;;23.90;49.00;;;;;;10363870;28;20234;-81
2022/08/19 08:45:45;;;;;;;17.83;16.50;;;23.90;49.20;;;;;;10380134;28;20816;-82
2022/08/19 08:50:59;;;;;;;19.03;17.53;;;24.00;49.60;;;;;;10407384;28;20240;-81
2022/08/19 08:56:07;;;;;;;18.33;16.93;;;24.00;49.30;;;;;;10405864;28;20770;-81
2022/08/19 09:01:11;;;;;;;19.03;17.43;;;24.00;49.30;;;;;;10408679;28;20994;-81
2022/08/19 09:06:24;;;;;;;19.70;18.13;;;24.00;48.70;;;;;;10407627;28;20731;-81
2022/08/19 09:17:07;;;;;;;21.20;19.53;;;24.00;49.90;;;;;;10417294;28;20312;-78
2022/08/19 09:22:23;;;;;;;20.07;18.37;;;24.00;48.70;;;;;;10420341;28;20236;-83
2022/08/19 09:27:30;;;;;;;21.07;19.37;;;24.00;49.60;;;;;;10421606;28;20225;-79
2022/08/19 09:32:45;;;;;;;20.10;18.47;;;24.00;48.90;;;;;;10410488;28;20236;-81
2022/08/19 09:37:50;;;;;;;20.80;19.00;;;24.10;48.90;;;;;;10411648;28;20232;-81
2022/08/19 09:43:02;;;;;;;20.80;19.00;;;24.10;49.30;;;;;;10413077;28;20257;-82
2022/08/19 09:48:16;;;;;;;20.53;18.83;;;24.10;48.80;;;;;;10407735;28;20307;-77
2022/08/19 09:53:22;;;;;;;21.23;19.47;;;24.20;49.20;;;;;;10405265;28;20237;-78
2022/08/19 09:58:29;;;;;;;21.70;19.90;;;24.20;49.30;;;;;;10411985;28;20236;-83
2022/08/19 10:03:35;;;;;;;19.57;17.97;;;24.30;49.10;;;;;;10397289;28;20225;-81
2022/08/19 10:08:40;;;;;;;21.70;19.80;;;24.30;49.50;;;;;;10373187;28;20230;-81
2022/08/19 10:13:53;;;;;;;20.50;18.70;;;24.40;49.40;;;;;;10390910;28;20230;-81
2022/08/19 10:18:56;;;;;;;21.90;19.90;;;24.50;48.60;;;;;;10400055;28;20232;-83
2022/08/19 10:24:05;;;;;;;19.57;17.93;;;24.60;48.70;;;;;;10376439;28;20246;-81
2022/08/19 10:29:11;;;;;;;19.33;17.83;;;24.60;48.70;;;;;;10396966;28;20915;-82
2022/08/19 10:34:14;;;;;;;19.43;17.67;;;24.60;48.40;;;;;;10396784;28;20263;-82
2022/08/19 10:39:32;;;;;;;19.53;17.97;;;24.60;48.40;;;;;;10392744;28;20466;-82
2022/08/19 10:44:47;;;;;;;19.57;18.07;;;24.60;48.60;;;;;;10401025;28;20231;-83
2022/08/19 11:00:36;;;;;;;19.47;17.83;;;24.60;48.70;;;;;;10398582;28;20217;-83
2022/08/19 11:05:48;;;;;;;17.93;16.33;;;24.60;48.50;;;;;;10410268;28;20221;-84
2022/08/19 11:11:00;;;;;;;18.30;16.83;;;24.60;49.10;;;;;;10444122;28;20237;-82
2022/08/19 11:16:06;;;;;;;19.80;18.00;;;24.60;49.20;;;;;;10381464;28;20225;-86
2022/08/19 11:21:20;;;;;;;17.53;16.13;;;24.60;49.30;;;;;;10420386;28;20234;-84
2022/08/19 11:26:26;;;;;;;18.00;16.50;;;24.60;49.30;;;;;;10409677;28;20312;-78
2022/08/19 11:31:36;;;;;;;16.70;15.40;;;24.60;49.10;;;;;;10407377;28;20704;-76
2022/08/19 11:36:42;;;;;;;17.30;15.90;;;24.50;49.40;;;;;;10406317;28;20233;-79
2022/08/19 11:41:47;;;;;;;15.60;14.30;;;24.40;49.20;;;;;;10406235;28;20244;-79
2022/08/19 11:46:53;;;;;;;16.03;14.73;;;24.30;49.20;;;;;;10408273;28;20236;-77
2022/08/19 11:51:58;;;;;;;15.00;13.73;;;24.20;49.60;;;;;;10410287;28;20225;-79
2022/08/19 11:57:05;;;;;;;13.33;12.33;;;24.10;49.10;;;;;;10408600;28;20240;-79
2022/08/19 12:02:08;;;;;;;11.90;10.90;;;24.10;50.10;;;;;;10409578;28;20229;-80
2022/08/19 12:07:13;;;;;;;9.93;9.13;;;24.00;49.40;;;;;;10413671;28;20263;-78
2022/08/19 12:12:18;;;;;;;9.07;8.27;;;23.90;50.40;;;;;;10414211;28;20263;-79
2022/08/19 12:17:33;;;;;;;8.50;7.80;;;23.70;50.50;;;;;;10413523;28;21398;-81
2022/08/19 12:22:39;;;;;;;6.03;5.60;;;23.80;51.00;;;;;;10370964;28;20599;-81
2022/08/19 12:27:44;;;;;;;5.67;5.33;;;23.60;50.50;;;;;;10364842;28;20226;-78
2022/08/19 12:33:07;;;;;;;5.17;4.77;;;23.60;50.70;;;;;;10389425;28;20244;-82
2022/08/19 12:38:15;;;;;;;5.10;4.80;;;23.50;51.30;;;;;;10399120;28;20277;-78
2022/08/19 12:43:47;;;;;;;4.83;4.53;;;23.40;51.70;;;;;;10415479;28;20299;-82
2022/08/19 12:49:06;;;;;;;3.70;3.40;;;23.40;51.70;;;;;;10442518;28;20228;-83
2022/08/19 12:54:45;;;;;;;3.57;3.27;;;23.40;51.70;;;;;;10443720;28;20229;-79
2022/08/19 12:59:54;;;;;;;3.87;3.57;;;23.40;51.70;;;;;;10373227;28;20312;-80
2022/08/19 13:04:58;;;;;;;3.00;2.77;;;23.40;51.80;;;;;;10376074;28;20236;-82
2022/08/19 13:10:34;;;;;;;2.90;2.70;;;23.40;51.70;;;;;;10372865;28;20230;-83
2022/08/19 13:15:52;;;;;;;2.93;2.73;;;23.50;52.10;;;;;;10400971;28;20233;-81
2022/08/19 13:20:57;;;;;;;3.50;3.30;;;23.50;51.80;;;;;;10406654;28;20312;-83
2022/08/19 13:26:02;;;;;;;3.27;3.07;;;23.70;52.00;;;;;;10377389;28;20233;-81
2022/08/19 13:37:10;;;;;;;5.17;4.77;;;23.90;52.20;;;;;;10354806;28;20677;-85
2022/08/19 13:42:26;;;;;;;5.40;5.00;;;23.90;52.20;;;;;;10325163;28;20226;-80
2022/08/19 13:47:31;;;;;;;5.30;4.90;;;23.90;52.10;;;;;;10369530;28;20293;-82
2022/08/19 13:52:34;;;;;;;6.00;5.60;;;24.00;50.90;;;;;;10402439;28;20340;-81
2022/08/19 13:57:38;;;;;;;6.00;5.60;;;24.00;50.60;;;;;;10409015;28;20775;-81
2022/08/19 14:02:46;;;;;;;5.17;4.87;;;24.00;50.60;;;;;;10416697;28;20984;-84
2022/08/19 14:07:49;;;;;;;5.00;4.67;;;24.00;51.50;;;;;;10390161;28;20861;-79
2022/08/19 14:12:55;;;;;;;4.73;4.43;;;23.90;50.40;;;;;;10380194;28;20272;-79
2022/08/19 14:17:59;;;;;;;6.30;5.80;;;23.90;51.00;;;;;;10382513;28;20704;-79
2022/08/19 14:23:04;;;;;;;6.70;6.20;;;23.80;51.30;;;;;;10376937;28;20232;-77
2022/08/19 14:28:08;;;;;;;8.40;7.80;;;23.80;50.90;;;;;;10383220;28;20232;-78
2022/08/19 14:33:14;;;;;;;8.47;7.73;;;23.80;50.80;;;;;;10392642;28;20241;-78
2022/08/19 14:38:19;;;;;;;9.57;8.77;;;23.80;51.20;;;;;;10396526;28;20252;-77
2022/08/19 14:43:33;;;;;;;10.60;9.70;;;23.80;51.40;;;;;;10399815;28;20646;-77
2022/08/19 14:48:38;;;;;;;10.27;9.47;;;23.80;51.60;;;;;;10393014;28;20238;-78
2022/08/19 14:53:43;;;;;;;14.40;13.20;;;23.80;52.10;;;;;;10402574;28;20236;-77
2022/08/19 14:58:46;;;;;;;13.90;12.90;;;23.80;51.30;;;;;;10401390;28;20707;-77
2022/08/19 15:03:53;;;;;;;15.53;14.33;;;23.80;51.30;;;;;;10393254;28;20225;-77
2022/08/19 15:08:56;;;;;;;16.67;15.27;;;23.80;51.70;;;;;;10386468;28;20241;-78
2022/08/19 15:14:06;;;;;;;15.40;14.20;;;23.80;51.60;;;;;;10388614;28;20300;-78
2022/08/19 15:19:11;;;;;;;15.83;14.63;;;23.90;51.50;;;;;;10389644;28;20585;-78
2022/08/19 15:24:14;;;;;;;17.50;16.10;;;23.90;51.90;;;;;;10384933;28;20227;-77
2022/08/19 15:29:18;;;;;;;17.83;16.33;;;23.90;51.10;;;;;;10370749;28;20236;-79
2022/08/19 15:34:22;;;;;;;17.53;16.03;;;23.90;51.10;;;;;;10400552;28;20221;-81
2022/08/19 15:39:26;;;;;;;19.73;18.03;;;23.90;52.00;;;;;;10406933;28;20688;-81
2022/08/19 15:44:29;;;;;;;19.83;18.07;;;23.90;51.20;;;;;;10391926;28;20221;-78
2022/08/19 15:49:33;;;;;;;18.17;16.63;;;23.80;51.20;;;;;;10400778;28;20225;-78
2022/08/19 15:54:37;;;;;;;17.83;16.33;;;23.80;51.20;;;;;;10401152;28;20292;-78
2022/08/19 16:10:30;;;;;;;15.07;13.77;;;23.60;51.90;;;;;;10382476;28;20236;-78
2022/08/19 16:15:34;;;;;;;14.43;13.13;;;23.50;51.80;;;;;;10378846;28;21044;-78
2022/08/19 16:20:38;;;;;;;13.10;12.00;;;23.50;51.80;;;;;;10387354;28;20229;-76
2022/08/19 16:25:42;;;;;;;12.63;11.63;;;23.40;51.70;;;;;;10412455;28;20693;-79
2022/08/19 16:30:45;;;;;;;12.63;11.47;;;23.40;51.70;;;;;;10444383;28;20320;-77
2022/08/19 16:35:54;;;;;;;12.33;11.33;;;23.30;52.30;;;;;;10426584;28;20305;-77
2022/08/19 16:41:10;;;;;;;12.30;11.30;;;23.30;51.70;;;;;;10393224;28;20726;-77
2022/08/19 16:46:13;;;;;;;10.83;9.93;;;23.30;51.60;;;;;;10371470;28;20230;-79
2022/08/19 16:51:22;;;;;;;9.87;9.13;;;23.30;51.60;;;;;;10394720;28;20229;-79
2022/08/19 16:56:26;;;;;;;8.07;7.47;;;23.20;51.70;;;;;;10385458;28;20244;-77
2022/08/19 17:01:29;;;;;;;6.80;6.30;;;23.30;51.60;;;;;;10381943;28;20945;-80
2022/08/19 17:06:36;;;;;;;5.83;5.43;;;23.30;51.60;;;;;;10395090;28;20229;-79
2022/08/19 17:11:39;;;;;;;5.10;4.80;;;23.30;51.60;;;;;;10384588;28;20233;-79
2022/08/19 17:16:43;;;;;;;3.80;3.60;;;23.30;51.60;;;;;;10385429;28;20221;-79
2022/08/19 17:21:47;;;;;;;3.63;3.27;;;23.20;51.60;;;;;;10391043;28;20637;-80
2022/08/19 17:26:50;;;;;;;3.27;3.07;;;23.20;51.60;;;;;;10385015;28;20234;-79
2022/08/19 17:31:54;;;;;;;2.70;2.50;;;23.20;51.60;;;;;;10390614;28;20750;-79
2022/08/19 17:36:58;;;;;;;2.30;2.20;;;23.10;51.20;;;;;;10397446;28;20229;-80
2022/08/19 17:42:02;;;;;;;2.40;2.20;;;23.10;50.90;;;;;;10399765;28;20226;-80
2022/08/19 17:47:07;;;;;;;1.87;1.77;;;23.10;50.70;;;;;;10393279;28;20243;-79
2022/08/19 17:52:12;;;;;;;2.00;1.90;;;22.90;50.50;;;;;;10393732;28;20234;-79
2022/08/19 17:57:15;;;;;;;2.10;2.00;;;22.80;50.40;;;;;;10392351;28;20238;-79
2022/08/19 18:02:19;;;;;;;3.10;2.90;;;22.70;50.40;;;;;;10392344;28;20226;-79
2022/08/19 18:07:25;;;;;;;3.17;2.97;;;22.60;50.70;;;;;;10396244;28;20864;-79
2022/08/19 18:12:28;;;;;;;3.50;3.20;;;22.50;51.00;;;;;;10394461;28;20230;-80
2022/08/19 18:17:32;;;;;;;3.93;3.63;;;22.40;50.80;;;;;;10410260;28;20233;-80
2022/08/19 18:22:38;;;;;;;4.30;4.00;;;22.30;50.80;;;;;;10406142;28;20221;-80
2022/08/19 18:27:42;;;;;;;4.40;4.10;;;22.10;50.70;;;;;;10414352;28;20232;-81
2022/08/19 18:32:48;;;;;;;4.43;4.13;;;21.90;50.50;;;;;;10396078;28;20232;-80
2022/08/19 18:37:52;;;;;;;3.67;3.47;;;21.80;51.10;;;;;;10399571;28;20232;-81
2022/08/19 18:53:42;;;;;;;3.13;2.93;;;21.60;51.50;;;;;;10400507;28;20248;-81
2022/08/19 18:58:46;;;;;;;3.70;3.43;;;21.70;52.20;;;;;;10405893;28;20226;-82
2022/08/19 19:03:52;;;;;;;4.20;3.90;;;21.70;51.70;;;;;;10396948;28;20229;-81
2022/08/19 19:08:59;;;;;;;4.10;3.80;;;21.60;52.30;;;;;;10381178;28;20641;-82
2022/08/19 19:14:04;;;;;;;3.80;3.60;;;21.50;52.40;;;;;;10388488;28;20595;-79
2022/08/19 19:19:11;;;;;;;3.80;3.57;;;21.30;52.40;;;;;;10389177;28;20226;-81
2022/08/19 19:24:20;;;;;;;3.60;3.40;;;21.20;52.80;;;;;;10372535;28;20230;-81
2022/08/19 19:29:24;;;;;;;3.70;3.40;;;21.20;53.60;;;;;;10387639;28;21056;-80
2022/08/19 19:34:29;;;;;;;3.87;3.57;;;21.10;53.10;;;;;;10382546;28;20283;-80
2022/08/19 19:39:34;;;;;;;3.60;3.33;;;21.10;53.10;;;;;;10385222;28;20234;-80
2022/08/19 19:44:53;;;;;;;4.03;3.73;;;21.00;53.70;;;;;;10378930;28;20280;-78
2022/08/19 19:49:57;;;;;;;4.20;3.90;;;21.00;53.70;;;;;;10395255;28;20238;-85
2022/08/19 19:55:18;;;;;;;3.73;3.53;;;20.90;53.00;;;;;;10397987;28;20226;-82
2022/08/19 20:00:22;;;;;;;4.33;4.03;;;20.90;53.50;;;;;;10377977;28;20236;-84
2022/08/19 20:05:26;;;;;;;4.60;4.30;;;20.80;53.20;;;;;;10386852;28;20226;-83
2022/08/19 20:10:31;;;;;;;4.40;4.10;;;20.80;53.40;;;;;;10395034;28;20225;-84
2022/08/19 20:15:35;;;;;;;4.13;3.83;;;20.80;53.40;;;;;;10393151;28;20316;-81
2022/08/19 20:20:45;;;;;;;4.20;3.90;;;20.70;52.90;;;;;;10379673;28;20279;-82
2022/08/19 20:25:50;;;;;;;4.63;4.33;;;20.70;52.90;;;;;;10376111;28;20223;-82
2022/08/19 20:30:54;;;;;;;4.27;3.97;;;20.70;53.10;;;;;;10375691;28;20225;-84
2022/08/19 20:35:57;;;;;;;4.50;4.20;;;20.60;52.80;;;;;;10370864;28;20256;-82
2022/08/19 20:41:13;;;;;;;4.80;4.40;;;20.60;52.70;;;;;;10371960;28;20232;-81
2022/08/19 20:46:19;;;;;;;4.53;4.23;;;20.60;53.20;;;;;;10371641;28;21036;-83
2022/08/19 20:51:24;;;;;;;4.00;3.70;;;20.60;52.90;;;;;;10384811;28;20233;-83
2022/08/19 20:56:38;;;;;;;3.83;3.53;;;20.50;52.90;;;;;;10393696;28;21115;-85
2022/08/19 21:01:52;;;;;;;4.57;4.27;;;20.60;53.80;;;;;;10398096;28;20240;-84
2022/08/19 21:07:01;;;;;;;4.20;3.90;;;20.60;53.20;;;;;;10392204;28;20229;-82
2022/08/19 21:12:11;;;;;;;3.83;3.53;;;20.50;52.90;;;;;;10410374;28;20263;-83
2022/08/19 21:17:15;;;;;;;4.33;4.03;;;20.50;53.40;;;;;;10411840;28;20297;-81
2022/08/19 21:22:18;;;;;;;4.20;3.80;;;20.50;52.70;;;;;;10291937;23;20236;-73
2022/08/19 21:27:23;;;;;;;4.40;4.10;;;20.60;53.00;;;;;;10241629;28;20231;-72
2022/08/19 21:32:39;;;;;;;4.60;4.20;;;20.50;53.20;;;;;;10251445;28;20228;-72
2022/08/19 21:38:03;;;;;;;5.67;4.00;;;20.50;53.60;;;;;;10249193;28;20314;-73
2022/08/19 21:43:15;;;;;;;4.03;3.73;;;20.50;53.70;;;;;;10251196;28;20911;-77
2022/08/19 21:48:18;;;;;;;4.17;3.87;;;20.50;53.70;;;;;;10245521;28;20227;-76
2022/08/19 21:53:22;;;;;;;4.40;4.10;;;20.50;53.80;;;;;;10264719;28;20289;-77
2022/08/19 21:58:27;;;;;;;4.27;3.97;;;20.50;53.70;;;;;;10261539;28;20238;-76
2022/08/19 22:03:33;;;;;;;4.20;3.90;;;20.50;53.80;;;;;;10266729;28;20310;-74
2022/08/19 22:14:05;;;;;;;5.30;4.37;;;20.50;53.60;;;;;;10389000;28;20598;-87
2022/08/19 22:19:09;;;;;;;4.70;4.40;;;20.50;54.70;;;;;;10393553;28;20300;-87
2022/08/19 22:24:13;;;;;;;5.20;4.80;;;20.50;53.90;;;;;;10397797;28;20225;-86
2022/08/19 22:29:18;;;;;;;4.93;4.53;;;20.50;53.90;;;;;;10404735;28;20225;-86
2022/08/19 22:34:28;;;;;;;5.43;5.03;;;20.60;54.70;;;;;;10402843;28;20225;-87
2022/08/19 22:39:32;;;;;;;4.77;4.47;;;20.60;54.10;;;;;;10403636;28;20261;-87
2022/08/19 22:44:36;;;;;;;4.97;4.57;;;20.70;54.10;;;;;;10398604;28;20226;-86
2022/08/19 22:49:40;;;;;;;5.73;5.33;;;20.70;54.60;;;;;;10405179;28;20222;-87
2022/08/19 22:54:44;;;;;;;6.33;5.73;;;20.80;54.10;;;;;;10403920;28;20308;-86
2022/08/19 22:59:51;;;;;;;6.77;6.27;;;20.80;54.20;;;;;;10403019;28;20225;-87
2022/08/19 23:04:55;;;;;;;6.00;5.60;;;20.90;54.50;;;;;;10401164;28;20226;-85
2022/08/19 23:09:58;;;;;;;6.03;5.57;;;21.00;53.90;;;;;;10401532;28;20226;-85
2022/08/19 23:15:07;;;;;;;5.90;5.50;;;21.00;53.60;;;;;;10401887;28;20735;-86
2022/08/19 23:20:13;;;;;;;5.63;5.27;;;21.00;53.90;;;;;;10402156;28;20218;-84
2022/08/19 23:25:19;;;;;;;6.60;6.10;;;21.10;53.60;;;;;;10404307;28;20670;-83
2022/08/19 23:30:27;;;;;;;6.13;5.73;;;21.10;53.50;;;;;;10402938;28;20233;-85
2022/08/19 23:35:33;;;;;;;5.97;5.57;;;21.10;53.40;;;;;;10406402;28;20293;-84
2022/08/19 23:40:38;;;;;;;5.37;4.97;;;21.10;53.50;;;;;;10403858;28;20257;-84
2022/08/19 23:45:43;;;;;;;5.67;5.17;;;21.10;53.30;;;;;;10400809;28;20235;-84
2022/08/19 23:50:55;;;;;;;5.50;5.10;;;21.10;53.20;;;;;;10396413;28;20759;-84
2022/08/19 23:55:59;;;;;;;5.03;4.73;;;21.20;53.10;;;;;;10399844;28;20305;-82
